sensor_id;sensor_type;location;lat;lon;timestamp;P1;durP1;ratioP1;P2;durP2;ratioP2
46308;SDS011;32037;50.820;6.494;2023-07-20T00:02:01;2.27;;;1.50;;
46308;SDS011;32037;50.820;6.494;2023-07-20T00:04:33;1.83;;;1.73;;
46308;SDS011;32037;50.820;6.494;2023-07-20T00:07:02;1.60;;;1.40;;
46308;SDS011;32037;50.820;6.494;2023-07-20T00:09:31;1.40;;;1.30;;
46308;SDS011;32037;50.820;6.494;2023-07-20T00:11:59;1.50;;;1.40;;
46308;SDS011;32037;50.820;6.494;2023-07-20T00:14:28;1.80;;;1.70;;
46308;SDS011;32037;50.820;6.494;2023-07-20T00:16:58;2.23;;;1.80;;
46308;SDS011;32037;50.820;6.494;2023-07-20T00:19:27;1.50;;;1.40;;
46308;SDS011;32037;50.820;6.494;2023-07-20T00:21:57;1.70;;;1.60;;
46308;SDS011;32037;50.820;6.494;2023-07-20T00:24:26;1.87;;;1.63;;
46308;SDS011;32037;50.820;6.494;2023-07-20T00:26:54;1.70;;;1.53;;
46308;SDS011;32037;50.820;6.494;2023-07-20T00:29:23;1.83;;;1.63;;
46308;SDS011;32037;50.820;6.494;2023-07-20T00:31:52;1.53;;;1.43;;
46308;SDS011;32037;50.820;6.494;2023-07-20T00:34:22;1.77;;;1.67;;
46308;SDS011;32037;50.820;6.494;2023-07-20T00:36:53;1.77;;;1.67;;
46308;SDS011;32037;50.820;6.494;2023-07-20T00:39:23;2.00;;;1.47;;
46308;SDS011;32037;50.820;6.494;2023-07-20T00:41:52;1.97;;;1.70;;
46308;SDS011;32037;50.820;6.494;2023-07-20T00:44:20;1.60;;;1.50;;
46308;SDS011;32037;50.820;6.494;2023-07-20T00:46:49;1.83;;;1.73;;
46308;SDS011;32037;50.820;6.494;2023-07-20T00:49:19;1.70;;;1.60;;
46308;SDS011;32037;50.820;6.494;2023-07-20T00:51:48;2.00;;;1.60;;
46308;SDS011;32037;50.820;6.494;2023-07-20T00:54:18;1.73;;;1.63;;
46308;SDS011;32037;50.820;6.494;2023-07-20T00:56:48;3.10;;;1.70;;
46308;SDS011;32037;50.820;6.494;2023-07-20T00:59:18;2.03;;;1.63;;
46308;SDS011;32037;50.820;6.494;2023-07-20T01:01:52;2.70;;;1.57;;
46308;SDS011;32037;50.820;6.494;2023-07-20T01:04:20;1.97;;;1.87;;
46308;SDS011;32037;50.820;6.494;2023-07-20T01:06:51;1.93;;;1.50;;
46308;SDS011;32037;50.820;6.494;2023-07-20T01:09:27;1.97;;;1.77;;
46308;SDS011;32037;50.820;6.494;2023-07-20T01:12:02;3.00;;;1.87;;
46308;SDS011;32037;50.820;6.494;2023-07-20T01:14:35;1.50;;;1.40;;
46308;SDS011;32037;50.820;6.494;2023-07-20T01:17:05;1.97;;;1.77;;
46308;SDS011;32037;50.820;6.494;2023-07-20T01:19:34;2.20;;;2.00;;
46308;SDS011;32037;50.820;6.494;2023-07-20T01:22:03;2.00;;;1.63;;
46308;SDS011;32037;50.820;6.494;2023-07-20T01:24:45;1.60;;;1.50;;
46308;SDS011;32037;50.820;6.494;2023-07-20T01:27:40;1.77;;;1.67;;
46308;SDS011;32037;50.820;6.494;2023-07-20T01:30:43;1.60;;;1.50;;
46308;SDS011;32037;50.820;6.494;2023-07-20T01:33:20;2.77;;;1.60;;
46308;SDS011;32037;50.820;6.494;2023-07-20T01:35:52;1.70;;;1.40;;
46308;SDS011;32037;50.820;6.494;2023-07-20T01:38:23;2.00;;;1.90;;
46308;SDS011;32037;50.820;6.494;2023-07-20T01:40:52;1.67;;;1.53;;
46308;SDS011;32037;50.820;6.494;2023-07-20T01:43:21;1.87;;;1.70;;
46308;SDS011;32037;50.820;6.494;2023-07-20T01:45:50;1.57;;;1.47;;
46308;SDS011;32037;50.820;6.494;2023-07-20T01:48:20;2.30;;;1.60;;
46308;SDS011;32037;50.820;6.494;2023-07-20T01:50:48;2.00;;;1.63;;
46308;SDS011;32037;50.820;6.494;2023-07-20T01:53:17;2.00;;;1.87;;
46308;SDS011;32037;50.820;6.494;2023-07-20T01:55:47;1.60;;;1.43;;
46308;SDS011;32037;50.820;6.494;2023-07-20T01:58:16;2.10;;;1.90;;
46308;SDS011;32037;50.820;6.494;2023-07-20T02:00:44;3.20;;;2.07;;
46308;SDS011;32037;50.820;6.494;2023-07-20T02:03:13;2.17;;;1.40;;
46308;SDS011;32037;50.820;6.494;2023-07-20T02:05:43;2.30;;;1.50;;
46308;SDS011;32037;50.820;6.494;2023-07-20T02:08:12;1.70;;;1.60;;
46308;SDS011;32037;50.820;6.494;2023-07-20T02:10:41;1.60;;;1.50;;
46308;SDS011;32037;50.820;6.494;2023-07-20T02:13:09;1.50;;;1.40;;
46308;SDS011;32037;50.820;6.494;2023-07-20T02:15:38;1.70;;;1.60;;
46308;SDS011;32037;50.820;6.494;2023-07-20T02:18:07;2.37;;;1.70;;
46308;SDS011;32037;50.820;6.494;2023-07-20T02:20:36;1.10;;;1.00;;
46308;SDS011;32037;50.820;6.494;2023-07-20T02:23:06;1.43;;;1.33;;
46308;SDS011;32037;50.820;6.494;2023-07-20T02:25:35;1.53;;;1.43;;
46308;SDS011;32037;50.820;6.494;2023-07-20T02:28:04;2.60;;;1.70;;
46308;SDS011;32037;50.820;6.494;2023-07-20T02:30:37;1.93;;;1.50;;
46308;SDS011;32037;50.820;6.494;2023-07-20T02:33:07;1.87;;;1.70;;
46308;SDS011;32037;50.820;6.494;2023-07-20T02:35:35;1.67;;;1.57;;
46308;SDS011;32037;50.820;6.494;2023-07-20T02:38:06;1.83;;;1.70;;
46308;SDS011;32037;50.820;6.494;2023-07-20T02:40:35;1.50;;;1.40;;
46308;SDS011;32037;50.820;6.494;2023-07-20T02:43:03;1.57;;;1.47;;
46308;SDS011;32037;50.820;6.494;2023-07-20T02:45:32;1.40;;;1.30;;
46308;SDS011;32037;50.820;6.494;2023-07-20T02:48:04;2.43;;;1.63;;
46308;SDS011;32037;50.820;6.494;2023-07-20T02:50:34;2.87;;;1.43;;
46308;SDS011;32037;50.820;6.494;2023-07-20T02:53:03;1.37;;;1.20;;
46308;SDS011;32037;50.820;6.494;2023-07-20T02:55:33;1.70;;;1.50;;
46308;SDS011;32037;50.820;6.494;2023-07-20T02:58:02;1.80;;;1.40;;
46308;SDS011;32037;50.820;6.494;2023-07-20T03:00:31;2.27;;;1.17;;
46308;SDS011;32037;50.820;6.494;2023-07-20T03:03:00;2.00;;;1.27;;
46308;SDS011;32037;50.820;6.494;2023-07-20T03:05:29;1.40;;;1.30;;
46308;SDS011;32037;50.820;6.494;2023-07-20T03:07:58;1.40;;;1.30;;
46308;SDS011;32037;50.820;6.494;2023-07-20T03:10:30;1.80;;;1.40;;
46308;SDS011;32037;50.820;6.494;2023-07-20T03:12:59;1.53;;;1.43;;
46308;SDS011;32037;50.820;6.494;2023-07-20T03:15:28;1.70;;;1.60;;
46308;SDS011;32037;50.820;6.494;2023-07-20T03:17:58;1.67;;;1.57;;
46308;SDS011;32037;50.820;6.494;2023-07-20T03:20:27;1.40;;;1.30;;
46308;SDS011;32037;50.820;6.494;2023-07-20T03:22:56;1.80;;;1.47;;
46308;SDS011;32037;50.820;6.494;2023-07-20T03:25:25;2.30;;;1.47;;
46308;SDS011;32037;50.820;6.494;2023-07-20T03:27:56;1.67;;;1.57;;
46308;SDS011;32037;50.820;6.494;2023-07-20T03:30:25;2.20;;;1.47;;
46308;SDS011;32037;50.820;6.494;2023-07-20T03:32:53;1.90;;;1.73;;
46308;SDS011;32037;50.820;6.494;2023-07-20T03:35:22;4.20;;;1.70;;
46308;SDS011;32037;50.820;6.494;2023-07-20T03:37:51;1.50;;;1.40;;
46308;SDS011;32037;50.820;6.494;2023-07-20T03:40:21;1.57;;;1.47;;
46308;SDS011;32037;50.820;6.494;2023-07-20T03:42:51;2.13;;;1.40;;
46308;SDS011;32037;50.820;6.494;2023-07-20T03:45:21;2.27;;;2.00;;
46308;SDS011;32037;50.820;6.494;2023-07-20T03:47:51;1.53;;;1.40;;
46308;SDS011;32037;50.820;6.494;2023-07-20T03:50:20;1.40;;;1.30;;
46308;SDS011;32037;50.820;6.494;2023-07-20T03:52:48;2.30;;;1.80;;
46308;SDS011;32037;50.820;6.494;2023-07-20T03:55:17;1.40;;;1.30;;
46308;SDS011;32037;50.820;6.494;2023-07-20T03:57:46;1.57;;;1.40;;
46308;SDS011;32037;50.820;6.494;2023-07-20T04:00:17;1.70;;;1.40;;
46308;SDS011;32037;50.820;6.494;2023-07-20T04:02:48;2.10;;;1.83;;
46308;SDS011;32037;50.820;6.494;2023-07-20T04:05:20;1.47;;;1.30;;
46308;SDS011;32037;50.820;6.494;2023-07-20T04:07:48;2.80;;;1.73;;
46308;SDS011;32037;50.820;6.494;2023-07-20T04:10:18;1.97;;;1.87;;
46308;SDS011;32037;50.820;6.494;2023-07-20T04:12:51;2.00;;;1.57;;
46308;SDS011;32037;50.820;6.494;2023-07-20T04:15:20;1.90;;;1.47;;
46308;SDS011;32037;50.820;6.494;2023-07-20T04:17:50;1.93;;;1.30;;
46308;SDS011;32037;50.820;6.494;2023-07-20T04:20:18;1.70;;;1.30;;
46308;SDS011;32037;50.820;6.494;2023-07-20T04:22:47;1.20;;;1.10;;
46308;SDS011;32037;50.820;6.494;2023-07-20T04:25:17;3.97;;;1.50;;
46308;SDS011;32037;50.820;6.494;2023-07-20T04:27:46;1.53;;;1.43;;
46308;SDS011;32037;50.820;6.494;2023-07-20T04:30:16;1.97;;;1.77;;
46308;SDS011;32037;50.820;6.494;2023-07-20T04:32:47;2.57;;;2.03;;
46308;SDS011;32037;50.820;6.494;2023-07-20T04:35:44;2.00;;;1.57;;
46308;SDS011;32037;50.820;6.494;2023-07-20T04:38:16;1.43;;;1.33;;
46308;SDS011;32037;50.820;6.494;2023-07-20T04:40:48;1.90;;;1.70;;
46308;SDS011;32037;50.820;6.494;2023-07-20T04:43:18;2.60;;;1.90;;
46308;SDS011;32037;50.820;6.494;2023-07-20T04:45:47;1.67;;;1.57;;
46308;SDS011;32037;50.820;6.494;2023-07-20T04:48:17;1.50;;;1.40;;
46308;SDS011;32037;50.820;6.494;2023-07-20T04:50:52;2.50;;;1.47;;
46308;SDS011;32037;50.820;6.494;2023-07-20T04:53:23;1.87;;;1.40;;
46308;SDS011;32037;50.820;6.494;2023-07-20T04:55:53;2.20;;;1.70;;
46308;SDS011;32037;50.820;6.494;2023-07-20T04:58:23;1.53;;;1.43;;
46308;SDS011;32037;50.820;6.494;2023-07-20T05:00:54;2.23;;;1.20;;
46308;SDS011;32037;50.820;6.494;2023-07-20T05:03:22;1.60;;;1.27;;
46308;SDS011;32037;50.820;6.494;2023-07-20T05:05:56;1.93;;;1.63;;
46308;SDS011;32037;50.820;6.494;2023-07-20T05:08:25;3.00;;;2.10;;
46308;SDS011;32037;50.820;6.494;2023-07-20T05:10:54;2.80;;;1.70;;
46308;SDS011;32037;50.820;6.494;2023-07-20T05:13:23;1.87;;;1.77;;
46308;SDS011;32037;50.820;6.494;2023-07-20T05:15:52;2.50;;;1.80;;
46308;SDS011;32037;50.820;6.494;2023-07-20T05:18:22;1.63;;;1.43;;
46308;SDS011;32037;50.820;6.494;2023-07-20T05:20:51;1.67;;;1.57;;
46308;SDS011;32037;50.820;6.494;2023-07-20T05:23:23;4.43;;;1.97;;
46308;SDS011;32037;50.820;6.494;2023-07-20T05:25:56;1.77;;;1.40;;
46308;SDS011;32037;50.820;6.494;2023-07-20T05:28:26;1.73;;;1.40;;
46308;SDS011;32037;50.820;6.494;2023-07-20T05:30:58;1.40;;;1.27;;
46308;SDS011;32037;50.820;6.494;2023-07-20T05:33:26;2.53;;;1.57;;
46308;SDS011;32037;50.820;6.494;2023-07-20T05:35:55;2.43;;;1.40;;
46308;SDS011;32037;50.820;6.494;2023-07-20T05:38:25;2.13;;;1.70;;
46308;SDS011;32037;50.820;6.494;2023-07-20T05:40:58;1.90;;;1.80;;
46308;SDS011;32037;50.820;6.494;2023-07-20T05:43:27;1.67;;;1.57;;
46308;SDS011;32037;50.820;6.494;2023-07-20T05:45:56;1.93;;;1.57;;
46308;SDS011;32037;50.820;6.494;2023-07-20T05:48:25;2.17;;;1.97;;
46308;SDS011;32037;50.820;6.494;2023-07-20T05:50:53;2.50;;;1.67;;
46308;SDS011;32037;50.820;6.494;2023-07-20T05:53:22;1.50;;;1.40;;
46308;SDS011;32037;50.820;6.494;2023-07-20T05:55:55;4.03;;;1.83;;
46308;SDS011;32037;50.820;6.494;2023-07-20T05:58:23;4.07;;;2.23;;
46308;SDS011;32037;50.820;6.494;2023-07-20T06:00:53;3.33;;;2.30;;
46308;SDS011;32037;50.820;6.494;2023-07-20T06:03:21;1.77;;;1.57;;
46308;SDS011;32037;50.820;6.494;2023-07-20T06:05:51;1.60;;;1.50;;
46308;SDS011;32037;50.820;6.494;2023-07-20T06:08:20;1.73;;;1.63;;
46308;SDS011;32037;50.820;6.494;2023-07-20T06:10:51;1.33;;;1.23;;
46308;SDS011;32037;50.820;6.494;2023-07-20T06:13:19;2.67;;;1.73;;
46308;SDS011;32037;50.820;6.494;2023-07-20T06:15:48;2.07;;;1.53;;
46308;SDS011;32037;50.820;6.494;2023-07-20T06:18:17;2.17;;;1.93;;
46308;SDS011;32037;50.820;6.494;2023-07-20T06:20:50;2.50;;;1.87;;
46308;SDS011;32037;50.820;6.494;2023-07-20T06:23:19;2.40;;;2.20;;
46308;SDS011;32037;50.820;6.494;2023-07-20T06:25:48;1.63;;;1.50;;
46308;SDS011;32037;50.820;6.494;2023-07-20T06:28:17;2.33;;;1.90;;
46308;SDS011;32037;50.820;6.494;2023-07-20T06:30:46;2.70;;;2.30;;
46308;SDS011;32037;50.820;6.494;2023-07-20T06:33:14;2.10;;;1.90;;
46308;SDS011;32037;50.820;6.494;2023-07-20T06:35:43;2.20;;;1.50;;
46308;SDS011;32037;50.820;6.494;2023-07-20T06:38:12;1.80;;;1.70;;
46308;SDS011;32037;50.820;6.494;2023-07-20T06:40:45;1.70;;;1.40;;
46308;SDS011;32037;50.820;6.494;2023-07-20T06:43:14;1.63;;;1.50;;
46308;SDS011;32037;50.820;6.494;2023-07-20T06:45:52;1.90;;;1.80;;
46308;SDS011;32037;50.820;6.494;2023-07-20T06:48:21;1.63;;;1.33;;
46308;SDS011;32037;50.820;6.494;2023-07-20T06:50:49;2.20;;;1.60;;
46308;SDS011;32037;50.820;6.494;2023-07-20T06:53:18;1.93;;;1.30;;
46308;SDS011;32037;50.820;6.494;2023-07-20T06:55:47;1.63;;;1.53;;
46308;SDS011;32037;50.820;6.494;2023-07-20T06:58:15;1.63;;;1.53;;
46308;SDS011;32037;50.820;6.494;2023-07-20T07:00:44;2.03;;;1.83;;
46308;SDS011;32037;50.820;6.494;2023-07-20T07:03:14;1.93;;;1.73;;
46308;SDS011;32037;50.820;6.494;2023-07-20T07:05:43;2.90;;;1.87;;
46308;SDS011;32037;50.820;6.494;2023-07-20T07:08:16;1.90;;;1.80;;
46308;SDS011;32037;50.820;6.494;2023-07-20T07:10:47;2.97;;;2.30;;
46308;SDS011;32037;50.820;6.494;2023-07-20T07:13:16;1.90;;;1.70;;
46308;SDS011;32037;50.820;6.494;2023-07-20T07:15:47;3.03;;;2.83;;
46308;SDS011;32037;50.820;6.494;2023-07-20T07:36:01;3.30;;;3.00;;
46308;SDS011;32037;50.820;6.494;2023-07-20T07:43:08;2.17;;;1.80;;
46308;SDS011;32037;50.820;6.494;2023-07-20T07:45:37;1.87;;;1.67;;
46308;SDS011;32037;50.820;6.494;2023-07-20T07:48:05;2.40;;;2.20;;
46308;SDS011;32037;50.820;6.494;2023-07-20T07:50:34;4.73;;;4.27;;
46308;SDS011;32037;50.820;6.494;2023-07-20T07:53:05;5.70;;;3.90;;
46308;SDS011;32037;50.820;6.494;2023-07-20T07:55:34;4.10;;;3.10;;
46308;SDS011;32037;50.820;6.494;2023-07-20T07:58:03;4.07;;;2.87;;
46308;SDS011;32037;50.820;6.494;2023-07-20T08:00:31;5.17;;;2.80;;
46308;SDS011;32037;50.820;6.494;2023-07-20T08:03:00;4.83;;;3.00;;
46308;SDS011;32037;50.820;6.494;2023-07-20T08:05:28;4.00;;;2.70;;
46308;SDS011;32037;50.820;6.494;2023-07-20T08:07:57;2.97;;;2.63;;
46308;SDS011;32037;50.820;6.494;2023-07-20T08:10:27;5.30;;;3.40;;
46308;SDS011;32037;50.820;6.494;2023-07-20T08:12:55;2.80;;;2.60;;
46308;SDS011;32037;50.820;6.494;2023-07-20T08:15:24;2.90;;;2.40;;
46308;SDS011;32037;50.820;6.494;2023-07-20T08:17:52;5.07;;;3.33;;
46308;SDS011;32037;50.820;6.494;2023-07-20T08:20:21;3.80;;;2.80;;
46308;SDS011;32037;50.820;6.494;2023-07-20T08:22:54;5.03;;;3.40;;
46308;SDS011;32037;50.820;6.494;2023-07-20T08:25:22;3.40;;;2.70;;
46308;SDS011;32037;50.820;6.494;2023-07-20T08:27:52;3.43;;;2.50;;
46308;SDS011;32037;50.820;6.494;2023-07-20T08:30:21;3.13;;;2.30;;
46308;SDS011;32037;50.820;6.494;2023-07-20T08:32:50;4.10;;;2.50;;
46308;SDS011;32037;50.820;6.494;2023-07-20T08:35:18;3.20;;;2.00;;
46308;SDS011;32037;50.820;6.494;2023-07-20T08:37:48;4.83;;;2.80;;
46308;SDS011;32037;50.820;6.494;2023-07-20T08:40:17;2.90;;;2.30;;
46308;SDS011;32037;50.820;6.494;2023-07-20T08:42:45;2.93;;;2.57;;
46308;SDS011;32037;50.820;6.494;2023-07-20T08:45:16;3.33;;;2.50;;
46308;SDS011;32037;50.820;6.494;2023-07-20T08:47:45;2.67;;;2.47;;
46308;SDS011;32037;50.820;6.494;2023-07-20T08:50:16;2.80;;;2.13;;
46308;SDS011;32037;50.820;6.494;2023-07-20T08:52:45;5.50;;;2.30;;
46308;SDS011;32037;50.820;6.494;2023-07-20T08:55:14;3.90;;;2.60;;
46308;SDS011;32037;50.820;6.494;2023-07-20T08:57:42;2.80;;;2.60;;
46308;SDS011;32037;50.820;6.494;2023-07-20T09:00:13;3.00;;;2.30;;
46308;SDS011;32037;50.820;6.494;2023-07-20T09:02:45;3.03;;;2.40;;
46308;SDS011;32037;50.820;6.494;2023-07-20T09:05:14;4.27;;;2.17;;
46308;SDS011;32037;50.820;6.494;2023-07-20T09:07:43;2.90;;;2.20;;
46308;SDS011;32037;50.820;6.494;2023-07-20T09:10:12;3.70;;;2.97;;
46308;SDS011;32037;50.820;6.494;2023-07-20T09:12:41;3.40;;;2.23;;
46308;SDS011;32037;50.820;6.494;2023-07-20T09:15:11;5.40;;;2.50;;
46308;SDS011;32037;50.820;6.494;2023-07-20T09:17:43;2.27;;;2.07;;
46308;SDS011;32037;50.820;6.494;2023-07-20T09:20:15;1.90;;;1.80;;
46308;SDS011;32037;50.820;6.494;2023-07-20T09:22:48;3.23;;;2.80;;
46308;SDS011;32037;50.820;6.494;2023-07-20T09:25:19;3.70;;;2.50;;
46308;SDS011;32037;50.820;6.494;2023-07-20T09:27:50;2.67;;;2.17;;
46308;SDS011;32037;50.820;6.494;2023-07-20T09:30:20;4.20;;;1.73;;
46308;SDS011;32037;50.820;6.494;2023-07-20T09:32:57;2.50;;;2.27;;
46308;SDS011;32037;50.820;6.494;2023-07-20T09:35:26;2.50;;;2.30;;
46308;SDS011;32037;50.820;6.494;2023-07-20T09:38:08;2.57;;;2.37;;
46308;SDS011;32037;50.820;6.494;2023-07-20T09:40:40;3.57;;;2.30;;
46308;SDS011;32037;50.820;6.494;2023-07-20T09:43:11;3.00;;;2.17;;
46308;SDS011;32037;50.820;6.494;2023-07-20T09:45:44;1.97;;;1.87;;
46308;SDS011;32037;50.820;6.494;2023-07-20T09:48:17;2.03;;;1.90;;
46308;SDS011;32037;50.820;6.494;2023-07-20T09:50:51;2.47;;;2.27;;
46308;SDS011;32037;50.820;6.494;2023-07-20T09:53:21;1.97;;;1.80;;
46308;SDS011;32037;50.820;6.494;2023-07-20T09:55:53;2.73;;;2.10;;
46308;SDS011;32037;50.820;6.494;2023-07-20T09:58:22;2.00;;;1.80;;
46308;SDS011;32037;50.820;6.494;2023-07-20T10:00:51;2.20;;;1.67;;
46308;SDS011;32037;50.820;6.494;2023-07-20T10:03:27;1.80;;;1.70;;
46308;SDS011;32037;50.820;6.494;2023-07-20T10:06:02;2.60;;;2.40;;
46308;SDS011;32037;50.820;6.494;2023-07-20T10:08:35;2.20;;;2.00;;
46308;SDS011;32037;50.820;6.494;2023-07-20T10:11:11;2.07;;;1.90;;
46308;SDS011;32037;50.820;6.494;2023-07-20T10:13:43;2.80;;;2.23;;
46308;SDS011;32037;50.820;6.494;2023-07-20T10:16:14;2.33;;;2.13;;
46308;SDS011;32037;50.820;6.494;2023-07-20T10:18:59;3.03;;;2.00;;
46308;SDS011;32037;50.820;6.494;2023-07-20T10:21:31;2.77;;;1.67;;
46308;SDS011;32037;50.820;6.494;2023-07-20T10:24:04;1.93;;;1.73;;
46308;SDS011;32037;50.820;6.494;2023-07-20T10:26:34;2.30;;;2.00;;
46308;SDS011;32037;50.820;6.494;2023-07-20T10:29:05;2.07;;;1.97;;
46308;SDS011;32037;50.820;6.494;2023-07-20T10:31:35;3.00;;;2.37;;
46308;SDS011;32037;50.820;6.494;2023-07-20T10:34:05;2.60;;;2.30;;
46308;SDS011;32037;50.820;6.494;2023-07-20T10:36:33;3.40;;;2.07;;
46308;SDS011;32037;50.820;6.494;2023-07-20T10:39:21;2.60;;;1.80;;
46308;SDS011;32037;50.820;6.494;2023-07-20T10:41:53;2.00;;;1.57;;
46308;SDS011;32037;50.820;6.494;2023-07-20T10:44:28;2.30;;;1.80;;
46308;SDS011;32037;50.820;6.494;2023-07-20T10:47:01;2.20;;;2.00;;
46308;SDS011;32037;50.820;6.494;2023-07-20T10:49:33;2.30;;;2.07;;
46308;SDS011;32037;50.820;6.494;2023-07-20T10:52:04;2.00;;;1.90;;
46308;SDS011;32037;50.820;6.494;2023-07-20T10:54:35;2.80;;;2.27;;
46308;SDS011;32037;50.820;6.494;2023-07-20T10:57:22;2.30;;;1.90;;
46308;SDS011;32037;50.820;6.494;2023-07-20T11:00:07;4.87;;;2.03;;
46308;SDS011;32037;50.820;6.494;2023-07-20T11:02:47;1.53;;;1.40;;
46308;SDS011;32037;50.820;6.494;2023-07-20T11:05:35;2.70;;;2.40;;
46308;SDS011;32037;50.820;6.494;2023-07-20T11:08:05;2.10;;;1.90;;
46308;SDS011;32037;50.820;6.494;2023-07-20T11:10:37;4.00;;;2.20;;
46308;SDS011;32037;50.820;6.494;2023-07-20T11:16:02;1.83;;;1.70;;
46308;SDS011;32037;50.820;6.494;2023-07-20T11:18:35;3.50;;;1.80;;
46308;SDS011;32037;50.820;6.494;2023-07-20T11:21:09;2.80;;;1.90;;
46308;SDS011;32037;50.820;6.494;2023-07-20T11:23:39;2.20;;;2.00;;
46308;SDS011;32037;50.820;6.494;2023-07-20T11:26:08;2.30;;;1.90;;
46308;SDS011;32037;50.820;6.494;2023-07-20T11:28:37;3.30;;;1.80;;
46308;SDS011;32037;50.820;6.494;2023-07-20T11:31:06;2.43;;;1.80;;
46308;SDS011;32037;50.820;6.494;2023-07-20T11:33:34;2.63;;;2.37;;
46308;SDS011;32037;50.820;6.494;2023-07-20T11:36:03;3.00;;;2.53;;
46308;SDS011;32037;50.820;6.494;2023-07-20T11:38:37;2.77;;;2.20;;
46308;SDS011;32037;50.820;6.494;2023-07-20T11:41:08;2.63;;;2.43;;
46308;SDS011;32037;50.820;6.494;2023-07-20T11:43:37;2.27;;;2.13;;
46308;SDS011;32037;50.820;6.494;2023-07-20T11:46:06;2.00;;;1.90;;
46308;SDS011;32037;50.820;6.494;2023-07-20T11:48:35;1.83;;;1.73;;
46308;SDS011;32037;50.820;6.494;2023-07-20T11:51:03;3.50;;;2.23;;
46308;SDS011;32037;50.820;6.494;2023-07-20T11:53:32;1.83;;;1.73;;
46308;SDS011;32037;50.820;6.494;2023-07-20T11:56:02;2.30;;;2.00;;
46308;SDS011;32037;50.820;6.494;2023-07-20T11:58:31;4.53;;;2.23;;
46308;SDS011;32037;50.820;6.494;2023-07-20T12:01:00;3.60;;;1.80;;
46308;SDS011;32037;50.820;6.494;2023-07-20T12:03:28;2.47;;;2.03;;
46308;SDS011;32037;50.820;6.494;2023-07-20T12:06:07;2.43;;;1.97;;
46308;SDS011;32037;50.820;6.494;2023-07-20T12:08:37;1.80;;;1.70;;
46308;SDS011;32037;50.820;6.494;2023-07-20T12:11:09;1.73;;;1.63;;
46308;SDS011;32037;50.820;6.494;2023-07-20T12:13:38;2.33;;;2.13;;
46308;SDS011;32037;50.820;6.494;2023-07-20T12:16:08;3.00;;;2.27;;
46308;SDS011;32037;50.820;6.494;2023-07-20T12:18:38;2.60;;;2.40;;
46308;SDS011;32037;50.820;6.494;2023-07-20T12:21:07;3.07;;;2.17;;
46308;SDS011;32037;50.820;6.494;2023-07-20T12:23:38;1.80;;;1.70;;
46308;SDS011;32037;50.820;6.494;2023-07-20T12:26:09;2.70;;;2.30;;
46308;SDS011;32037;50.820;6.494;2023-07-20T12:28:38;2.67;;;2.10;;
46308;SDS011;32037;50.820;6.494;2023-07-20T12:31:08;2.37;;;1.80;;
46308;SDS011;32037;50.820;6.494;2023-07-20T12:33:40;2.70;;;1.90;;
46308;SDS011;32037;50.820;6.494;2023-07-20T12:36:09;2.17;;;1.97;;
46308;SDS011;32037;50.820;6.494;2023-07-20T12:38:37;1.60;;;1.50;;
46308;SDS011;32037;50.820;6.494;2023-07-20T12:41:09;2.73;;;2.20;;
46308;SDS011;32037;50.820;6.494;2023-07-20T12:43:40;2.30;;;2.10;;
46308;SDS011;32037;50.820;6.494;2023-07-20T12:46:09;2.87;;;2.10;;
46308;SDS011;32037;50.820;6.494;2023-07-20T12:48:40;2.27;;;1.70;;
46308;SDS011;32037;50.820;6.494;2023-07-20T12:51:13;2.50;;;1.97;;
46308;SDS011;32037;50.820;6.494;2023-07-20T12:53:42;2.03;;;1.93;;
46308;SDS011;32037;50.820;6.494;2023-07-20T12:56:13;1.93;;;1.73;;
46308;SDS011;32037;50.820;6.494;2023-07-20T12:58:45;2.93;;;1.93;;
46308;SDS011;32037;50.820;6.494;2023-07-20T13:01:15;1.80;;;1.60;;
46308;SDS011;32037;50.820;6.494;2023-07-20T13:03:44;5.07;;;2.20;;
46308;SDS011;32037;50.820;6.494;2023-07-20T13:06:15;3.20;;;1.53;;
46308;SDS011;32037;50.820;6.494;2023-07-20T13:08:47;2.50;;;1.80;;
46308;SDS011;32037;50.820;6.494;2023-07-20T13:11:19;2.00;;;1.83;;
46308;SDS011;32037;50.820;6.494;2023-07-20T13:13:49;1.67;;;1.57;;
46308;SDS011;32037;50.820;6.494;2023-07-20T13:16:20;2.60;;;2.40;;
46308;SDS011;32037;50.820;6.494;2023-07-20T13:18:49;2.30;;;1.73;;
46308;SDS011;32037;50.820;6.494;2023-07-20T13:21:17;3.13;;;1.53;;
46308;SDS011;32037;50.820;6.494;2023-07-20T13:23:50;1.80;;;1.67;;
46308;SDS011;32037;50.820;6.494;2023-07-20T13:26:20;3.30;;;2.20;;
46308;SDS011;32037;50.820;6.494;2023-07-20T13:28:49;2.23;;;1.47;;
46308;SDS011;32037;50.820;6.494;2023-07-20T13:31:17;1.67;;;1.30;;
46308;SDS011;32037;50.820;6.494;2023-07-20T13:33:50;2.47;;;1.60;;
46308;SDS011;32037;50.820;6.494;2023-07-20T13:36:25;1.57;;;1.30;;
46308;SDS011;32037;50.820;6.494;2023-07-20T13:38:56;3.97;;;1.83;;
46308;SDS011;32037;50.820;6.494;2023-07-20T13:41:27;2.10;;;1.90;;
46308;SDS011;32037;50.820;6.494;2023-07-20T13:43:56;1.80;;;1.70;;
46308;SDS011;32037;50.820;6.494;2023-07-20T13:46:25;2.40;;;1.90;;
46308;SDS011;32037;50.820;6.494;2023-07-20T13:48:56;1.63;;;1.53;;
46308;SDS011;32037;50.820;6.494;2023-07-20T13:51:25;1.87;;;1.77;;
46308;SDS011;32037;50.820;6.494;2023-07-20T13:53:54;1.80;;;1.70;;
46308;SDS011;32037;50.820;6.494;2023-07-20T13:56:23;2.33;;;1.93;;
46308;SDS011;32037;50.820;6.494;2023-07-20T13:58:53;4.20;;;1.80;;
46308;SDS011;32037;50.820;6.494;2023-07-20T14:01:24;1.80;;;1.70;;
46308;SDS011;32037;50.820;6.494;2023-07-20T14:03:55;1.70;;;1.60;;
46308;SDS011;32037;50.820;6.494;2023-07-20T14:06:24;2.03;;;1.50;;
46308;SDS011;32037;50.820;6.494;2023-07-20T14:08:57;1.70;;;1.60;;
46308;SDS011;32037;50.820;6.494;2023-07-20T14:11:25;3.17;;;1.73;;
46308;SDS011;32037;50.820;6.494;2023-07-20T14:13:58;3.27;;;1.70;;
46308;SDS011;32037;50.820;6.494;2023-07-20T14:16:27;2.57;;;1.53;;
46308;SDS011;32037;50.820;6.494;2023-07-20T14:18:58;1.67;;;1.50;;
46308;SDS011;32037;50.820;6.494;2023-07-20T14:21:26;1.60;;;1.50;;
46308;SDS011;32037;50.820;6.494;2023-07-20T14:23:55;1.57;;;1.47;;
46308;SDS011;32037;50.820;6.494;2023-07-20T14:26:27;3.67;;;1.83;;
46308;SDS011;32037;50.820;6.494;2023-07-20T14:29:00;2.37;;;1.60;;
46308;SDS011;32037;50.820;6.494;2023-07-20T14:31:29;2.10;;;1.43;;
46308;SDS011;32037;50.820;6.494;2023-07-20T14:33:58;1.70;;;1.60;;
46308;SDS011;32037;50.820;6.494;2023-07-20T14:36:27;1.90;;;1.43;;
46308;SDS011;32037;50.820;6.494;2023-07-20T14:38:57;4.30;;;1.77;;
46308;SDS011;32037;50.820;6.494;2023-07-20T14:41:25;2.03;;;1.73;;
46308;SDS011;32037;50.820;6.494;2023-07-20T14:43:54;1.90;;;1.70;;
46308;SDS011;32037;50.820;6.494;2023-07-20T14:46:25;1.53;;;1.43;;
46308;SDS011;32037;50.820;6.494;2023-07-20T14:48:54;1.77;;;1.30;;
46308;SDS011;32037;50.820;6.494;2023-07-20T14:51:23;2.10;;;2.00;;
46308;SDS011;32037;50.820;6.494;2023-07-20T14:54:02;2.60;;;1.60;;
46308;SDS011;32037;50.820;6.494;2023-07-20T14:56:31;1.80;;;1.67;;
46308;SDS011;32037;50.820;6.494;2023-07-20T14:58:59;3.10;;;1.70;;
46308;SDS011;32037;50.820;6.494;2023-07-20T15:01:29;1.60;;;1.50;;
46308;SDS011;32037;50.820;6.494;2023-07-20T15:03:58;2.27;;;1.90;;
46308;SDS011;32037;50.820;6.494;2023-07-20T15:06:29;2.37;;;1.90;;
46308;SDS011;32037;50.820;6.494;2023-07-20T15:08:58;2.10;;;1.40;;
46308;SDS011;32037;50.820;6.494;2023-07-20T15:11:27;1.87;;;1.73;;
46308;SDS011;32037;50.820;6.494;2023-07-20T15:13:56;4.07;;;1.50;;
46308;SDS011;32037;50.820;6.494;2023-07-20T15:16:24;1.43;;;1.33;;
46308;SDS011;32037;50.820;6.494;2023-07-20T15:18:55;2.57;;;1.80;;
46308;SDS011;32037;50.820;6.494;2023-07-20T15:21:23;3.87;;;1.90;;
46308;SDS011;32037;50.820;6.494;2023-07-20T15:23:57;2.20;;;1.70;;
46308;SDS011;32037;50.820;6.494;2023-07-20T15:26:25;2.90;;;1.50;;
46308;SDS011;32037;50.820;6.494;2023-07-20T15:28:54;1.73;;;1.37;;
46308;SDS011;32037;50.820;6.494;2023-07-20T15:31:23;2.13;;;1.93;;
46308;SDS011;32037;50.820;6.494;2023-07-20T15:33:56;2.23;;;1.53;;